sensor_id;sensor_type;location;lat;lon;timestamp;P1;durP1;ratioP1;P2;durP2;ratioP2
4603;SDS011;2314;48.272;11.562;2024-03-22T00:00:34;69.20;;;29.73;;
4603;SDS011;2314;48.272;11.562;2024-03-22T00:03:01;60.60;;;30.20;;
4603;SDS011;2314;48.272;11.562;2024-03-22T00:05:28;56.83;;;28.70;;
4603;SDS011;2314;48.272;11.562;2024-03-22T00:07:54;54.60;;;28.37;;
4603;SDS011;2314;48.272;11.562;2024-03-22T00:10:21;63.00;;;29.73;;
4603;SDS011;2314;48.272;11.562;2024-03-22T00:12:46;55.77;;;27.50;;
4603;SDS011;2314;48.272;11.562;2024-03-22T00:15:15;57.93;;;27.80;;
4603;SDS011;2314;48.272;11.562;2024-03-22T00:17:42;53.03;;;28.30;;
4603;SDS011;2314;48.272;11.562;2024-03-22T00:20:11;60.87;;;29.77;;
4603;SDS011;2314;48.272;11.562;2024-03-22T00:22:36;52.23;;;26.07;;
4603;SDS011;2314;48.272;11.562;2024-03-22T00:25:03;52.87;;;27.10;;
4603;SDS011;2314;48.272;11.562;2024-03-22T00:27:31;58.93;;;27.20;;
4603;SDS011;2314;48.272;11.562;2024-03-22T00:29:58;64.77;;;29.20;;
4603;SDS011;2314;48.272;11.562;2024-03-22T00:32:23;62.23;;;28.17;;
4603;SDS011;2314;48.272;11.562;2024-03-22T00:34:50;56.10;;;28.23;;
4603;SDS011;2314;48.272;11.562;2024-03-22T00:37:17;67.83;;;29.83;;
4603;SDS011;2314;48.272;11.562;2024-03-22T00:39:44;57.17;;;29.00;;
4603;SDS011;2314;48.272;11.562;2024-03-22T00:42:10;67.90;;;27.70;;
4603;SDS011;2314;48.272;11.562;2024-03-22T00:44:37;54.03;;;27.17;;
4603;SDS011;2314;48.272;11.562;2024-03-22T00:47:04;51.80;;;25.17;;
4603;SDS011;2314;48.272;11.562;2024-03-22T00:49:30;57.30;;;26.00;;
4603;SDS011;2314;48.272;11.562;2024-03-22T00:51:57;54.17;;;25.47;;
4603;SDS011;2314;48.272;11.562;2024-03-22T00:54:25;50.07;;;26.00;;
4603;SDS011;2314;48.272;11.562;2024-03-22T00:56:52;48.93;;;24.77;;
4603;SDS011;2314;48.272;11.562;2024-03-22T00:59:18;48.83;;;24.77;;
4603;SDS011;2314;48.272;11.562;2024-03-22T01:01:44;44.40;;;23.17;;
4603;SDS011;2314;48.272;11.562;2024-03-22T01:04:10;53.77;;;23.30;;
4603;SDS011;2314;48.272;11.562;2024-03-22T01:06:37;41.73;;;21.97;;
4603;SDS011;2314;48.272;11.562;2024-03-22T01:09:05;46.37;;;22.53;;
4603;SDS011;2314;48.272;11.562;2024-03-22T01:11:33;47.53;;;23.60;;
4603;SDS011;2314;48.272;11.562;2024-03-22T01:13:59;45.07;;;22.33;;
4603;SDS011;2314;48.272;11.562;2024-03-22T01:16:26;51.87;;;24.23;;
4603;SDS011;2314;48.272;11.562;2024-03-22T01:18:52;48.17;;;23.67;;
4603;SDS011;2314;48.272;11.562;2024-03-22T01:21:19;46.20;;;21.40;;
4603;SDS011;2314;48.272;11.562;2024-03-22T01:23:49;41.27;;;21.37;;
4603;SDS011;2314;48.272;11.562;2024-03-22T01:26:16;46.40;;;24.27;;
4603;SDS011;2314;48.272;11.562;2024-03-22T01:28:44;54.53;;;24.37;;
4603;SDS011;2314;48.272;11.562;2024-03-22T01:31:10;45.40;;;24.00;;
4603;SDS011;2314;48.272;11.562;2024-03-22T01:33:36;49.90;;;24.30;;
4603;SDS011;2314;48.272;11.562;2024-03-22T01:36:03;47.63;;;22.23;;
4603;SDS011;2314;48.272;11.562;2024-03-22T01:38:30;55.23;;;23.50;;
4603;SDS011;2314;48.272;11.562;2024-03-22T01:40:57;47.60;;;23.30;;
4603;SDS011;2314;48.272;11.562;2024-03-22T01:43:23;49.23;;;24.17;;
4603;SDS011;2314;48.272;11.562;2024-03-22T01:45:51;48.43;;;25.50;;
4603;SDS011;2314;48.272;11.562;2024-03-22T01:48:16;56.17;;;26.47;;
4603;SDS011;2314;48.272;11.562;2024-03-22T01:50:43;53.17;;;24.93;;
4603;SDS011;2314;48.272;11.562;2024-03-22T01:53:10;60.03;;;25.53;;
4603;SDS011;2314;48.272;11.562;2024-03-22T01:55:37;48.50;;;25.70;;
4603;SDS011;2314;48.272;11.562;2024-03-22T01:58:03;63.80;;;25.93;;
4603;SDS011;2314;48.272;11.562;2024-03-22T02:00:31;54.00;;;25.27;;
4603;SDS011;2314;48.272;11.562;2024-03-22T02:02:58;49.43;;;25.03;;
4603;SDS011;2314;48.272;11.562;2024-03-22T02:05:25;55.80;;;25.90;;
4603;SDS011;2314;48.272;11.562;2024-03-22T02:07:51;50.70;;;24.07;;
4603;SDS011;2314;48.272;11.562;2024-03-22T02:10:18;52.87;;;25.67;;
4603;SDS011;2314;48.272;11.562;2024-03-22T02:12:44;62.10;;;24.30;;
4603;SDS011;2314;48.272;11.562;2024-03-22T02:15:11;48.17;;;25.07;;
4603;SDS011;2314;48.272;11.562;2024-03-22T02:17:36;58.60;;;27.03;;
4603;SDS011;2314;48.272;11.562;2024-03-22T02:20:05;49.90;;;23.83;;
4603;SDS011;2314;48.272;11.562;2024-03-22T02:22:33;52.20;;;24.70;;
4603;SDS011;2314;48.272;11.562;2024-03-22T02:25:01;51.37;;;23.33;;
4603;SDS011;2314;48.272;11.562;2024-03-22T02:27:27;61.17;;;25.87;;
4603;SDS011;2314;48.272;11.562;2024-03-22T02:29:54;51.90;;;23.87;;
4603;SDS011;2314;48.272;11.562;2024-03-22T02:32:19;47.37;;;24.20;;
4603;SDS011;2314;48.272;11.562;2024-03-22T02:34:46;54.93;;;24.90;;
4603;SDS011;2314;48.272;11.562;2024-03-22T02:37:12;52.97;;;24.40;;
4603;SDS011;2314;48.272;11.562;2024-03-22T02:39:39;49.50;;;24.03;;
4603;SDS011;2314;48.272;11.562;2024-03-22T02:42:06;51.03;;;23.43;;
4603;SDS011;2314;48.272;11.562;2024-03-22T02:44:33;50.13;;;23.77;;
4603;SDS011;2314;48.272;11.562;2024-03-22T02:46:59;50.37;;;24.47;;
4603;SDS011;2314;48.272;11.562;2024-03-22T02:49:26;47.77;;;23.80;;
4603;SDS011;2314;48.272;11.562;2024-03-22T02:51:52;48.13;;;23.73;;
4603;SDS011;2314;48.272;11.562;2024-03-22T02:54:18;47.03;;;22.77;;
4603;SDS011;2314;48.272;11.562;2024-03-22T02:56:44;55.37;;;23.50;;
4603;SDS011;2314;48.272;11.562;2024-03-22T02:59:12;58.93;;;27.93;;
4603;SDS011;2314;48.272;11.562;2024-03-22T03:01:38;60.17;;;25.87;;
4603;SDS011;2314;48.272;11.562;2024-03-22T03:04:05;48.90;;;24.90;;
4603;SDS011;2314;48.272;11.562;2024-03-22T03:06:31;55.67;;;25.47;;
4603;SDS011;2314;48.272;11.562;2024-03-22T03:08:57;53.30;;;24.73;;
4603;SDS011;2314;48.272;11.562;2024-03-22T03:11:23;56.30;;;25.00;;
4603;SDS011;2314;48.272;11.562;2024-03-22T03:13:50;51.17;;;24.77;;
4603;SDS011;2314;48.272;11.562;2024-03-22T03:16:17;60.50;;;26.87;;
4603;SDS011;2314;48.272;11.562;2024-03-22T03:18:44;48.17;;;23.60;;
4603;SDS011;2314;48.272;11.562;2024-03-22T03:21:10;51.13;;;24.13;;
4603;SDS011;2314;48.272;11.562;2024-03-22T03:23:37;53.10;;;24.70;;
4603;SDS011;2314;48.272;11.562;2024-03-22T03:26:02;54.90;;;24.40;;
4603;SDS011;2314;48.272;11.562;2024-03-22T03:28:30;53.83;;;24.70;;
4603;SDS011;2314;48.272;11.562;2024-03-22T03:30:55;56.30;;;24.80;;
4603;SDS011;2314;48.272;11.562;2024-03-22T03:33:23;59.63;;;25.80;;
4603;SDS011;2314;48.272;11.562;2024-03-22T03:35:49;57.47;;;23.90;;
4603;SDS011;2314;48.272;11.562;2024-03-22T03:38:16;49.43;;;23.77;;
4603;SDS011;2314;48.272;11.562;2024-03-22T03:40:42;61.23;;;25.40;;
4603;SDS011;2314;48.272;11.562;2024-03-22T03:43:09;57.37;;;25.80;;
4603;SDS011;2314;48.272;11.562;2024-03-22T03:45:36;59.33;;;26.00;;
4603;SDS011;2314;48.272;11.562;2024-03-22T03:48:03;44.97;;;22.03;;
4603;SDS011;2314;48.272;11.562;2024-03-22T03:50:31;44.93;;;21.53;;
4603;SDS011;2314;48.272;11.562;2024-03-22T03:52:58;54.20;;;22.23;;
4603;SDS011;2314;48.272;11.562;2024-03-22T03:55:24;51.97;;;23.30;;
4603;SDS011;2314;48.272;11.562;2024-03-22T03:57:50;49.57;;;23.73;;
4603;SDS011;2314;48.272;11.562;2024-03-22T04:00:17;49.03;;;23.57;;
4603;SDS011;2314;48.272;11.562;2024-03-22T04:02:44;51.73;;;24.07;;
4603;SDS011;2314;48.272;11.562;2024-03-22T04:05:10;51.70;;;25.10;;
4603;SDS011;2314;48.272;11.562;2024-03-22T04:07:38;53.87;;;23.63;;
4603;SDS011;2314;48.272;11.562;2024-03-22T04:10:04;60.70;;;26.73;;
4603;SDS011;2314;48.272;11.562;2024-03-22T04:12:32;55.70;;;26.53;;
4603;SDS011;2314;48.272;11.562;2024-03-22T04:14:57;57.23;;;24.27;;
4603;SDS011;2314;48.272;11.562;2024-03-22T04:17:24;56.27;;;24.87;;
4603;SDS011;2314;48.272;11.562;2024-03-22T04:19:50;57.33;;;24.60;;
4603;SDS011;2314;48.272;11.562;2024-03-22T04:22:17;60.47;;;25.63;;
4603;SDS011;2314;48.272;11.562;2024-03-22T04:24:45;57.60;;;25.30;;
4603;SDS011;2314;48.272;11.562;2024-03-22T04:27:11;47.87;;;24.23;;
4603;SDS011;2314;48.272;11.562;2024-03-22T04:29:37;48.73;;;23.83;;
4603;SDS011;2314;48.272;11.562;2024-03-22T04:32:04;41.73;;;19.90;;
4603;SDS011;2314;48.272;11.562;2024-03-22T04:34:30;50.17;;;22.60;;
4603;SDS011;2314;48.272;11.562;2024-03-22T04:36:57;42.70;;;21.43;;
4603;SDS011;2314;48.272;11.562;2024-03-22T04:39:24;49.87;;;22.83;;
4603;SDS011;2314;48.272;11.562;2024-03-22T04:41:52;58.17;;;23.30;;
4603;SDS011;2314;48.272;11.562;2024-03-22T04:44:19;46.40;;;22.47;;
4603;SDS011;2314;48.272;11.562;2024-03-22T04:46:44;45.13;;;20.83;;
4603;SDS011;2314;48.272;11.562;2024-03-22T04:49:11;47.27;;;21.73;;
4603;SDS011;2314;48.272;11.562;2024-03-22T04:51:37;46.73;;;20.90;;
4603;SDS011;2314;48.272;11.562;2024-03-22T04:54:04;49.20;;;21.90;;
4603;SDS011;2314;48.272;11.562;2024-03-22T04:56:30;48.67;;;21.97;;
4603;SDS011;2314;48.272;11.562;2024-03-22T04:58:58;49.07;;;21.90;;
4603;SDS011;2314;48.272;11.562;2024-03-22T05:01:24;49.30;;;23.30;;
4603;SDS011;2314;48.272;11.562;2024-03-22T05:03:50;57.93;;;24.50;;
4603;SDS011;2314;48.272;11.562;2024-03-22T05:06:17;53.80;;;24.53;;
4603;SDS011;2314;48.272;11.562;2024-03-22T05:08:44;61.93;;;25.07;;
4603;SDS011;2314;48.272;11.562;2024-03-22T05:11:09;57.50;;;24.93;;
4603;SDS011;2314;48.272;11.562;2024-03-22T05:13:36;70.23;;;27.40;;
4603;SDS011;2314;48.272;11.562;2024-03-22T05:16:06;49.33;;;24.13;;
4603;SDS011;2314;48.272;11.562;2024-03-22T05:18:33;56.23;;;27.20;;
4603;SDS011;2314;48.272;11.562;2024-03-22T05:20:59;53.43;;;23.83;;
4603;SDS011;2314;48.272;11.562;2024-03-22T05:23:26;54.67;;;25.60;;
4603;SDS011;2314;48.272;11.562;2024-03-22T05:25:51;56.37;;;24.83;;
4603;SDS011;2314;48.272;11.562;2024-03-22T05:28:18;49.70;;;24.03;;
4603;SDS011;2314;48.272;11.562;2024-03-22T05:30:44;44.67;;;23.23;;
4603;SDS011;2314;48.272;11.562;2024-03-22T05:33:12;49.00;;;24.10;;
4603;SDS011;2314;48.272;11.562;2024-03-22T05:35:38;52.30;;;25.50;;
4603;SDS011;2314;48.272;11.562;2024-03-22T05:38:06;46.53;;;23.63;;
4603;SDS011;2314;48.272;11.562;2024-03-22T05:40:32;44.20;;;22.97;;
4603;SDS011;2314;48.272;11.562;2024-03-22T05:42:58;37.33;;;20.10;;
4603;SDS011;2314;48.272;11.562;2024-03-22T05:45:24;47.57;;;20.93;;
4603;SDS011;2314;48.272;11.562;2024-03-22T05:47:51;32.83;;;18.50;;
4603;SDS011;2314;48.272;11.562;2024-03-22T05:50:18;37.33;;;20.07;;
4603;SDS011;2314;48.272;11.562;2024-03-22T05:52:45;41.10;;;19.53;;
4603;SDS011;2314;48.272;11.562;2024-03-22T05:55:11;35.77;;;17.77;;
4603;SDS011;2314;48.272;11.562;2024-03-22T05:57:38;35.90;;;18.77;;
4603;SDS011;2314;48.272;11.562;2024-03-22T06:00:04;27.60;;;16.57;;
4603;SDS011;2314;48.272;11.562;2024-03-22T06:02:33;32.00;;;18.10;;
4603;SDS011;2314;48.272;11.562;2024-03-22T06:04:59;29.70;;;16.20;;
4603;SDS011;2314;48.272;11.562;2024-03-22T06:07:27;33.33;;;17.77;;
4603;SDS011;2314;48.272;11.562;2024-03-22T06:09:53;32.47;;;16.10;;
4603;SDS011;2314;48.272;11.562;2024-03-22T06:12:20;36.10;;;19.50;;
4603;SDS011;2314;48.272;11.562;2024-03-22T06:14:47;33.17;;;18.90;;
4603;SDS011;2314;48.272;11.562;2024-03-22T06:17:15;34.17;;;18.37;;
4603;SDS011;2314;48.272;11.562;2024-03-22T06:19:42;31.93;;;17.63;;
4603;SDS011;2314;48.272;11.562;2024-03-22T06:22:08;27.70;;;16.20;;
4603;SDS011;2314;48.272;11.562;2024-03-22T06:24:35;29.07;;;15.43;;
4603;SDS011;2314;48.272;11.562;2024-03-22T06:27:02;24.50;;;14.40;;
4603;SDS011;2314;48.272;11.562;2024-03-22T06:29:29;24.27;;;14.20;;
4603;SDS011;2314;48.272;11.562;2024-03-22T06:31:55;25.27;;;14.00;;
4603;SDS011;2314;48.272;11.562;2024-03-22T06:34:21;27.93;;;13.70;;
4603;SDS011;2314;48.272;11.562;2024-03-22T06:36:48;20.57;;;13.10;;
4603;SDS011;2314;48.272;11.562;2024-03-22T06:39:17;29.37;;;13.93;;
4603;SDS011;2314;48.272;11.562;2024-03-22T06:41:46;22.03;;;12.80;;
4603;SDS011;2314;48.272;11.562;2024-03-22T06:44:12;19.60;;;12.13;;
4603;SDS011;2314;48.272;11.562;2024-03-22T06:46:39;22.10;;;12.10;;
4603;SDS011;2314;48.272;11.562;2024-03-22T06:49:05;19.53;;;11.97;;
4603;SDS011;2314;48.272;11.562;2024-03-22T06:51:32;21.30;;;13.17;;
4603;SDS011;2314;48.272;11.562;2024-03-22T06:53:57;17.73;;;10.90;;
4603;SDS011;2314;48.272;11.562;2024-03-22T06:56:24;21.33;;;12.27;;
4603;SDS011;2314;48.272;11.562;2024-03-22T06:58:51;17.87;;;11.43;;
4603;SDS011;2314;48.272;11.562;2024-03-22T07:01:18;17.97;;;11.43;;
4603;SDS011;2314;48.272;11.562;2024-03-22T07:03:45;19.13;;;10.50;;
4603;SDS011;2314;48.272;11.562;2024-03-22T07:06:13;17.70;;;9.97;;
4603;SDS011;2314;48.272;11.562;2024-03-22T07:08:39;14.57;;;8.83;;
4603;SDS011;2314;48.272;11.562;2024-03-22T07:11:06;18.60;;;9.23;;
4603;SDS011;2314;48.272;11.562;2024-03-22T07:13:33;12.60;;;8.63;;
4603;SDS011;2314;48.272;11.562;2024-03-22T07:16:02;14.33;;;8.90;;
4603;SDS011;2314;48.272;11.562;2024-03-22T07:18:29;18.67;;;9.07;;
4603;SDS011;2314;48.272;11.562;2024-03-22T07:20:55;14.40;;;9.40;;
4603;SDS011;2314;48.272;11.562;2024-03-22T07:23:23;19.90;;;10.37;;
4603;SDS011;2314;48.272;11.562;2024-03-22T07:25:49;14.43;;;10.00;;
4603;SDS011;2314;48.272;11.562;2024-03-22T07:28:15;17.60;;;11.03;;
4603;SDS011;2314;48.272;11.562;2024-03-22T07:30:42;21.17;;;11.87;;
4603;SDS011;2314;48.272;11.562;2024-03-22T07:33:09;18.10;;;11.13;;
4603;SDS011;2314;48.272;11.562;2024-03-22T07:35:38;16.13;;;11.17;;
4603;SDS011;2314;48.272;11.562;2024-03-22T07:38:04;20.30;;;11.00;;
4603;SDS011;2314;48.272;11.562;2024-03-22T07:40:30;17.90;;;10.40;;
4603;SDS011;2314;48.272;11.562;2024-03-22T07:42:57;15.03;;;10.57;;
4603;SDS011;2314;48.272;11.562;2024-03-22T07:45:24;16.03;;;9.80;;
4603;SDS011;2314;48.272;11.562;2024-03-22T07:47:50;17.70;;;10.50;;
4603;SDS011;2314;48.272;11.562;2024-03-22T07:50:18;19.43;;;11.30;;
4603;SDS011;2314;48.272;11.562;2024-03-22T07:52:44;20.57;;;10.40;;
4603;SDS011;2314;48.272;11.562;2024-03-22T07:55:11;18.00;;;10.80;;
4603;SDS011;2314;48.272;11.562;2024-03-22T07:57:37;16.70;;;11.10;;
4603;SDS011;2314;48.272;11.562;2024-03-22T08:00:04;16.03;;;11.20;;
4603;SDS011;2314;48.272;11.562;2024-03-22T08:02:31;20.87;;;11.77;;
4603;SDS011;2314;48.272;11.562;2024-03-22T08:04:58;13.50;;;9.00;;
4603;SDS011;2314;48.272;11.562;2024-03-22T08:07:25;16.50;;;11.33;;
4603;SDS011;2314;48.272;11.562;2024-03-22T08:09:52;15.47;;;9.90;;
4603;SDS011;2314;48.272;11.562;2024-03-22T08:12:18;12.07;;;8.73;;
4603;SDS011;2314;48.272;11.562;2024-03-22T08:14:46;18.13;;;9.80;;
4603;SDS011;2314;48.272;11.562;2024-03-22T08:17:11;13.90;;;8.33;;
4603;SDS011;2314;48.272;11.562;2024-03-22T08:19:39;13.90;;;8.93;;
4603;SDS011;2314;48.272;11.562;2024-03-22T08:22:05;14.10;;;8.37;;
4603;SDS011;2314;48.272;11.562;2024-03-22T08:24:33;14.90;;;9.40;;
4603;SDS011;2314;48.272;11.562;2024-03-22T08:26:59;17.50;;;8.07;;
4603;SDS011;2314;48.272;11.562;2024-03-22T08:29:26;16.70;;;8.40;;
4603;SDS011;2314;48.272;11.562;2024-03-22T08:31:52;11.70;;;8.10;;
4603;SDS011;2314;48.272;11.562;2024-03-22T08:34:19;10.77;;;6.60;;
4603;SDS011;2314;48.272;11.562;2024-03-22T08:36:45;10.97;;;7.50;;
4603;SDS011;2314;48.272;11.562;2024-03-22T08:39:12;13.10;;;7.37;;
4603;SDS011;2314;48.272;11.562;2024-03-22T08:41:39;10.03;;;6.97;;
4603;SDS011;2314;48.272;11.562;2024-03-22T08:44:06;8.93;;;6.13;;
4603;SDS011;2314;48.272;11.562;2024-03-22T08:46:32;9.83;;;6.13;;
4603;SDS011;2314;48.272;11.562;2024-03-22T08:48:59;8.77;;;6.60;;
4603;SDS011;2314;48.272;11.562;2024-03-22T08:51:25;10.20;;;6.40;;
4603;SDS011;2314;48.272;11.562;2024-03-22T08:53:51;10.30;;;6.57;;
4603;SDS011;2314;48.272;11.562;2024-03-22T08:56:17;10.23;;;6.60;;
4603;SDS011;2314;48.272;11.562;2024-03-22T08:58:45;10.73;;;6.83;;
4603;SDS011;2314;48.272;11.562;2024-03-22T09:01:11;14.00;;;7.40;;
4603;SDS011;2314;48.272;11.562;2024-03-22T09:03:38;16.40;;;7.80;;
4603;SDS011;2314;48.272;11.562;2024-03-22T09:06:04;10.80;;;7.70;;
4603;SDS011;2314;48.272;11.562;2024-03-22T09:08:31;10.97;;;7.47;;
4603;SDS011;2314;48.272;11.562;2024-03-22T09:10:58;16.53;;;6.90;;
4603;SDS011;2314;48.272;11.562;2024-03-22T09:13:24;12.33;;;7.43;;
4603;SDS011;2314;48.272;11.562;2024-03-22T09:15:57;11.83;;;6.77;;
4603;SDS011;2314;48.272;11.562;2024-03-22T09:18:24;11.40;;;7.83;;
4603;SDS011;2314;48.272;11.562;2024-03-22T09:20:49;14.07;;;7.70;;
4603;SDS011;2314;48.272;11.562;2024-03-22T09:23:16;10.27;;;6.83;;
4603;SDS011;2314;48.272;11.562;2024-03-22T09:25:42;10.63;;;7.37;;
4603;SDS011;2314;48.272;11.562;2024-03-22T09:28:09;9.63;;;6.47;;
4603;SDS011;2314;48.272;11.562;2024-03-22T09:30:37;13.53;;;6.63;;
4603;SDS011;2314;48.272;11.562;2024-03-22T09:33:06;11.80;;;7.20;;
4603;SDS011;2314;48.272;11.562;2024-03-22T09:35:32;11.33;;;7.07;;
4603;SDS011;2314;48.272;11.562;2024-03-22T09:37:59;10.43;;;6.83;;
4603;SDS011;2314;48.272;11.562;2024-03-22T09:40:26;11.10;;;6.90;;
4603;SDS011;2314;48.272;11.562;2024-03-22T09:42:53;9.80;;;6.60;;
4603;SDS011;2314;48.272;11.562;2024-03-22T09:45:19;9.10;;;6.77;;
4603;SDS011;2314;48.272;11.562;2024-03-22T09:47:46;11.30;;;7.20;;
4603;SDS011;2314;48.272;11.562;2024-03-22T09:50:16;14.60;;;6.33;;
4603;SDS011;2314;48.272;11.562;2024-03-22T09:52:43;10.80;;;7.30;;
4603;SDS011;2314;48.272;11.562;2024-03-22T09:55:10;12.20;;;7.30;;
4603;SDS011;2314;48.272;11.562;2024-03-22T09:57:38;11.90;;;7.20;;
4603;SDS011;2314;48.272;11.562;2024-03-22T10:00:06;10.40;;;6.37;;
4603;SDS011;2314;48.272;11.562;2024-03-22T10:02:33;9.00;;;6.40;;
4603;SDS011;2314;48.272;11.562;2024-03-22T10:05:00;11.23;;;6.27;;
4603;SDS011;2314;48.272;11.562;2024-03-22T10:07:28;11.50;;;7.03;;
4603;SDS011;2314;48.272;11.562;2024-03-22T10:09:57;11.83;;;6.80;;
4603;SDS011;2314;48.272;11.562;2024-03-22T10:12:24;9.23;;;5.73;;
4603;SDS011;2314;48.272;11.562;2024-03-22T10:14:50;9.63;;;6.77;;
4603;SDS011;2314;48.272;11.562;2024-03-22T10:17:19;10.13;;;6.80;;
4603;SDS011;2314;48.272;11.562;2024-03-22T10:19:45;9.63;;;7.50;;
4603;SDS011;2314;48.272;11.562;2024-03-22T10:22:15;16.37;;;8.20;;
4603;SDS011;2314;48.272;11.562;2024-03-22T10:24:43;12.10;;;7.50;;
4603;SDS011;2314;48.272;11.562;2024-03-22T10:27:10;13.10;;;7.87;;
4603;SDS011;2314;48.272;11.562;2024-03-22T10:29:36;10.70;;;6.80;;
4603;SDS011;2314;48.272;11.562;2024-03-22T10:32:03;10.27;;;7.57;;
4603;SDS011;2314;48.272;11.562;2024-03-22T10:34:29;10.27;;;6.53;;
4603;SDS011;2314;48.272;11.562;2024-03-22T10:36:57;11.10;;;7.30;;
4603;SDS011;2314;48.272;11.562;2024-03-22T10:39:25;14.43;;;7.10;;
4603;SDS011;2314;48.272;11.562;2024-03-22T10:41:55;9.67;;;6.70;;
4603;SDS011;2314;48.272;11.562;2024-03-22T10:44:20;13.60;;;7.50;;
4603;SDS011;2314;48.272;11.562;2024-03-22T10:46:48;13.80;;;8.03;;
4603;SDS011;2314;48.272;11.562;2024-03-22T10:49:15;15.50;;;7.80;;
4603;SDS011;2314;48.272;11.562;2024-03-22T10:51:44;11.57;;;7.17;;
4603;SDS011;2314;48.272;11.562;2024-03-22T10:54:14;10.63;;;6.40;;
4603;SDS011;2314;48.272;11.562;2024-03-22T10:56:45;11.00;;;6.30;;
4603;SDS011;2314;48.272;11.562;2024-03-22T10:59:14;9.40;;;6.10;;
4603;SDS011;2314;48.272;11.562;2024-03-22T11:01:44;12.13;;;7.20;;
4603;SDS011;2314;48.272;11.562;2024-03-22T11:04:11;9.90;;;6.10;;
4603;SDS011;2314;48.272;11.562;2024-03-22T11:06:38;13.30;;;6.73;;
4603;SDS011;2314;48.272;11.562;2024-03-22T11:09:03;11.67;;;6.60;;
4603;SDS011;2314;48.272;11.562;2024-03-22T11:11:31;11.63;;;5.93;;
4603;SDS011;2314;48.272;11.562;2024-03-22T11:14:02;10.93;;;6.30;;
4603;SDS011;2314;48.272;11.562;2024-03-22T11:16:30;10.30;;;6.57;;
4603;SDS011;2314;48.272;11.562;2024-03-22T11:18:56;11.20;;;6.10;;
4603;SDS011;2314;48.272;11.562;2024-03-22T11:21:23;10.70;;;5.37;;
4603;SDS011;2314;48.272;11.562;2024-03-22T11:23:49;9.43;;;5.60;;
4603;SDS011;2314;48.272;11.562;2024-03-22T11:26:16;7.13;;;5.13;;
4603;SDS011;2314;48.272;11.562;2024-03-22T11:28:42;10.90;;;5.80;;
4603;SDS011;2314;48.272;11.562;2024-03-22T11:31:08;10.90;;;6.70;;
4603;SDS011;2314;48.272;11.562;2024-03-22T11:33:36;9.83;;;6.40;;
4603;SDS011;2314;48.272;11.562;2024-03-22T11:36:03;11.30;;;5.40;;
4603;SDS011;2314;48.272;11.562;2024-03-22T11:38:30;9.70;;;5.93;;
4603;SDS011;2314;48.272;11.562;2024-03-22T11:40:57;12.10;;;5.27;;
4603;SDS011;2314;48.272;11.562;2024-03-22T11:43:25;8.93;;;4.97;;
4603;SDS011;2314;48.272;11.562;2024-03-22T11:45:53;8.80;;;5.90;;
4603;SDS011;2314;48.272;11.562;2024-03-22T11:48:19;7.43;;;5.13;;
4603;SDS011;2314;48.272;11.562;2024-03-22T11:50:48;6.73;;;4.93;;
4603;SDS011;2314;48.272;11.562;2024-03-22T11:53:15;12.40;;;4.67;;
4603;SDS011;2314;48.272;11.562;2024-03-22T11:55:42;7.90;;;5.20;;
4603;SDS011;2314;48.272;11.562;2024-03-22T11:58:08;9.70;;;5.93;;
4603;SDS011;2314;48.272;11.562;2024-03-22T12:00:35;10.80;;;6.00;;
4603;SDS011;2314;48.272;11.562;2024-03-22T12:03:03;9.47;;;5.67;;
4603;SDS011;2314;48.272;11.562;2024-03-22T12:05:30;10.07;;;5.77;;
4603;SDS011;2314;48.272;11.562;2024-03-22T12:07:58;10.33;;;4.40;;
4603;SDS011;2314;48.272;11.562;2024-03-22T12:10:25;9.90;;;6.03;;
4603;SDS011;2314;48.272;11.562;2024-03-22T12:12:55;7.77;;;5.10;;
4603;SDS011;2314;48.272;11.562;2024-03-22T12:15:22;8.40;;;5.60;;
4603;SDS011;2314;48.272;11.562;2024-03-22T12:17:48;9.57;;;5.00;;
4603;SDS011;2314;48.272;11.562;2024-03-22T12:20:15;10.20;;;5.13;;
4603;SDS011;2314;48.272;11.562;2024-03-22T12:22:41;9.67;;;5.63;;
4603;SDS011;2314;48.272;11.562;2024-03-22T12:25:10;8.77;;;5.67;;
4603;SDS011;2314;48.272;11.562;2024-03-22T12:27:37;12.00;;;5.70;;
4603;SDS011;2314;48.272;11.562;2024-03-22T12:30:05;9.93;;;5.60;;
4603;SDS011;2314;48.272;11.562;2024-03-22T12:32:32;8.63;;;5.23;;
4603;SDS011;2314;48.272;11.562;2024-03-22T12:34:58;8.93;;;5.83;;
4603;SDS011;2314;48.272;11.562;2024-03-22T12:37:24;8.00;;;5.43;;
4603;SDS011;2314;48.272;11.562;2024-03-22T12:39:51;8.47;;;4.70;;
4603;SDS011;2314;48.272;11.562;2024-03-22T12:42:18;8.53;;;4.70;;
4603;SDS011;2314;48.272;11.562;2024-03-22T12:44:45;6.93;;;4.23;;
4603;SDS011;2314;48.272;11.562;2024-03-22T12:47:11;5.23;;;3.60;;
4603;SDS011;2314;48.272;11.562;2024-03-22T12:49:38;8.30;;;4.37;;
4603;SDS011;2314;48.272;11.562;2024-03-22T12:52:04;5.60;;;3.50;;
4603;SDS011;2314;48.272;11.562;2024-03-22T12:54:31;7.20;;;4.00;;
4603;SDS011;2314;48.272;11.562;2024-03-22T12:56:57;7.80;;;4.73;;
4603;SDS011;2314;48.272;11.562;2024-03-22T12:59:25;7.40;;;3.90;;
4603;SDS011;2314;48.272;11.562;2024-03-22T13:01:51;7.73;;;4.30;;
4603;SDS011;2314;48.272;11.562;2024-03-22T13:04:18;6.33;;;3.80;;
4603;SDS011;2314;48.272;11.562;2024-03-22T13:06:44;8.50;;;4.23;;
4603;SDS011;2314;48.272;11.562;2024-03-22T13:09:11;7.47;;;4.07;;
4603;SDS011;2314;48.272;11.562;2024-03-22T13:11:38;5.97;;;4.27;;
4603;SDS011;2314;48.272;11.562;2024-03-22T13:14:06;5.57;;;3.63;;
4603;SDS011;2314;48.272;11.562;2024-03-22T13:16:33;6.53;;;3.30;;
4603;SDS011;2314;48.272;11.562;2024-03-22T13:19:00;6.63;;;3.50;;
4603;SDS011;2314;48.272;11.562;2024-03-22T13:21:25;9.57;;;4.37;;
4603;SDS011;2314;48.272;11.562;2024-03-22T13:23:53;6.40;;;3.57;;
4603;SDS011;2314;48.272;11.562;2024-03-22T13:26:19;9.10;;;3.73;;
4603;SDS011;2314;48.272;11.562;2024-03-22T13:28:45;5.83;;;2.70;;
4603;SDS011;2314;48.272;11.562;2024-03-22T13:31:11;6.10;;;3.43;;
4603;SDS011;2314;48.272;11.562;2024-03-22T13:33:39;7.07;;;3.70;;
4603;SDS011;2314;48.272;11.562;2024-03-22T13:36:05;3.90;;;2.30;;
4603;SDS011;2314;48.272;11.562;2024-03-22T13:38:32;3.83;;;2.60;;
4603;SDS011;2314;48.272;11.562;2024-03-22T13:40:58;4.97;;;3.43;;
4603;SDS011;2314;48.272;11.562;2024-03-22T13:43:25;5.90;;;3.40;;
4603;SDS011;2314;48.272;11.562;2024-03-22T13:45:52;6.70;;;2.77;;
4603;SDS011;2314;48.272;11.562;2024-03-22T13:48:20;5.80;;;3.03;;
4603;SDS011;2314;48.272;11.562;2024-03-22T13:50:50;6.90;;;4.20;;
4603;SDS011;2314;48.272;11.562;2024-03-22T13:53:17;7.53;;;3.43;;
4603;SDS011;2314;48.272;11.562;2024-03-22T13:55:43;7.43;;;3.80;;
4603;SDS011;2314;48.272;11.562;2024-03-22T13:58:11;5.30;;;2.97;;
4603;SDS011;2314;48.272;11.562;2024-03-22T14:00:39;5.33;;;2.77;;
4603;SDS011;2314;48.272;11.562;2024-03-22T14:03:06;5.57;;;3.50;;
4603;SDS011;2314;48.272;11.562;2024-03-22T14:05:31;8.80;;;3.97;;
4603;SDS011;2314;48.272;11.562;2024-03-22T14:08:00;9.93;;;4.00;;
4603;SDS011;2314;48.272;11.562;2024-03-22T14:10:26;5.20;;;3.20;;
4603;SDS011;2314;48.272;11.562;2024-03-22T14:12:55;6.17;;;3.00;;
4603;SDS011;2314;48.272;11.562;2024-03-22T14:15:20;6.70;;;2.80;;
4603;SDS011;2314;48.272;11.562;2024-03-22T14:17:50;5.70;;;2.87;;
4603;SDS011;2314;48.272;11.562;2024-03-22T14:20:15;4.87;;;3.00;;
4603;SDS011;2314;48.272;11.562;2024-03-22T14:22:42;5.70;;;3.33;;
4603;SDS011;2314;48.272;11.562;2024-03-22T14:25:09;4.37;;;2.80;;
4603;SDS011;2314;48.272;11.562;2024-03-22T14:27:39;4.67;;;2.77;;
4603;SDS011;2314;48.272;11.562;2024-03-22T14:30:07;4.33;;;2.50;;
4603;SDS011;2314;48.272;11.562;2024-03-22T14:32:36;4.53;;;3.03;;
4603;SDS011;2314;48.272;11.562;2024-03-22T14:35:02;8.27;;;3.60;;
4603;SDS011;2314;48.272;11.562;2024-03-22T14:37:29;7.93;;;3.03;;
4603;SDS011;2314;48.272;11.562;2024-03-22T14:39:55;5.00;;;2.63;;